sensor_id;sensor_type;location;lat;lon;timestamp;pressure;altitude;pressure_sealevel;temperature;humidity
51452;BME280;37521;52.020;-1.740;2024-02-28T00:00:46;100245.50;;;3.07;100.00
51452;BME280;37521;52.020;-1.740;2024-02-28T00:03:15;100242.09;;;3.03;100.00
51452;BME280;37521;52.020;-1.740;2024-02-28T00:05:44;100241.25;;;3.01;100.00
51452;BME280;37521;52.020;-1.740;2024-02-28T00:08:13;100230.84;;;2.98;100.00
51452;BME280;37521;52.020;-1.740;2024-02-28T00:10:42;100233.50;;;2.93;100.00
51452;BME280;37521;52.020;-1.740;2024-02-28T00:13:12;100245.75;;;2.88;100.00
51452;BME280;37521;52.020;-1.740;2024-02-28T00:15:41;100243.19;;;2.84;100.00
51452;BME280;37521;52.020;-1.740;2024-02-28T00:18:10;100249.38;;;2.72;100.00
51452;BME280;37521;52.020;-1.740;2024-02-28T00:20:39;100250.47;;;2.51;100.00
51452;BME280;37521;52.020;-1.740;2024-02-28T00:23:07;100255.81;;;2.36;100.00
51452;BME280;37521;52.020;-1.740;2024-02-28T00:25:36;100249.81;;;2.26;100.00
51452;BME280;37521;52.020;-1.740;2024-02-28T00:28:05;100256.78;;;2.24;100.00
51452;BME280;37521;52.020;-1.740;2024-02-28T00:30:35;100250.78;;;2.17;100.00
51452;BME280;37521;52.020;-1.740;2024-02-28T00:33:04;100250.00;;;2.05;100.00
51452;BME280;37521;52.020;-1.740;2024-02-28T00:35:33;100244.06;;;1.86;100.00
51452;BME280;37521;52.020;-1.740;2024-02-28T00:38:04;100251.09;;;1.76;100.00
51452;BME280;37521;52.020;-1.740;2024-02-28T00:40:32;100250.19;;;1.79;100.00
51452;BME280;37521;52.020;-1.740;2024-02-28T00:43:01;100240.63;;;1.84;100.00
51452;BME280;37521;52.020;-1.740;2024-02-28T00:45:30;100233.66;;;1.87;100.00
51452;BME280;37521;52.020;-1.740;2024-02-28T00:48:00;100236.16;;;2.00;100.00
51452;BME280;37521;52.020;-1.740;2024-02-28T00:50:29;100242.16;;;2.09;100.00
51452;BME280;37521;52.020;-1.740;2024-02-28T00:52:58;100243.94;;;2.07;100.00
51452;BME280;37521;52.020;-1.740;2024-02-28T00:55:26;100236.16;;;2.00;100.00
51452;BME280;37521;52.020;-1.740;2024-02-28T00:57:55;100244.94;;;1.85;100.00
51452;BME280;37521;52.020;-1.740;2024-02-28T01:00:24;100250.25;;;1.71;100.00
51452;BME280;37521;52.020;-1.740;2024-02-28T01:02:52;100257.25;;;1.63;100.00
51452;BME280;37521;52.020;-1.740;2024-02-28T01:05:23;100255.53;;;1.62;100.00
51452;BME280;37521;52.020;-1.740;2024-02-28T01:07:51;100241.63;;;1.60;100.00
51452;BME280;37521;52.020;-1.740;2024-02-28T01:10:20;100256.47;;;1.44;100.00
51452;BME280;37521;52.020;-1.740;2024-02-28T01:12:49;100246.16;;;1.26;100.00
51452;BME280;37521;52.020;-1.740;2024-02-28T01:15:18;100248.78;;;1.21;100.00
51452;BME280;37521;52.020;-1.740;2024-02-28T01:17:47;100247.97;;;1.15;100.00
51452;BME280;37521;52.020;-1.740;2024-02-28T01:20:15;100248.84;;;1.07;100.00
51452;BME280;37521;52.020;-1.740;2024-02-28T01:22:45;100257.50;;;1.06;100.00
51452;BME280;37521;52.020;-1.740;2024-02-28T01:25:14;100264.44;;;1.06;100.00
51452;BME280;37521;52.020;-1.740;2024-02-28T01:27:43;100267.06;;;1.01;100.00
51452;BME280;37521;52.020;-1.740;2024-02-28T01:30:12;100274.09;;;0.69;100.00
51452;BME280;37521;52.020;-1.740;2024-02-28T01:32:41;100282.78;;;0.43;100.00
51452;BME280;37521;52.020;-1.740;2024-02-28T01:35:10;100273.28;;;0.41;100.00
51452;BME280;37521;52.020;-1.740;2024-02-28T01:37:39;100280.19;;;0.54;100.00
51452;BME280;37521;52.020;-1.740;2024-02-28T01:40:11;100287.06;;;0.72;100.00
51452;BME280;37521;52.020;-1.740;2024-02-28T01:42:40;100285.34;;;0.77;100.00
51452;BME280;37521;52.020;-1.740;2024-02-28T01:45:13;100271.53;;;0.55;100.00
51452;BME280;37521;52.020;-1.740;2024-02-28T01:47:42;100264.63;;;0.36;100.00
51452;BME280;37521;52.020;-1.740;2024-02-28T01:50:11;100275.88;;;0.24;100.00
51452;BME280;37521;52.020;-1.740;2024-02-28T01:52:41;100273.25;;;0.25;100.00
51452;BME280;37521;52.020;-1.740;2024-02-28T01:55:11;100270.66;;;0.30;100.00
51452;BME280;37521;52.020;-1.740;2024-02-28T01:57:40;100262.03;;;0.34;100.00
51452;BME280;37521;52.020;-1.740;2024-02-28T02:00:11;100269.78;;;0.26;100.00
51452;BME280;37521;52.020;-1.740;2024-02-28T02:02:40;100273.25;;;0.19;100.00
51452;BME280;37521;52.020;-1.740;2024-02-28T02:05:10;100289.72;;;0.17;100.00
51452;BME280;37521;52.020;-1.740;2024-02-28T02:07:39;100278.47;;;0.04;100.00
51452;BME280;37521;52.020;-1.740;2024-02-28T02:10:08;100272.41;;;-0.12;100.00
51452;BME280;37521;52.020;-1.740;2024-02-28T02:12:40;100272.38;;;-0.15;100.00
51452;BME280;37521;52.020;-1.740;2024-02-28T02:15:09;100266.31;;;-0.14;100.00
51452;BME280;37521;52.020;-1.740;2024-02-28T02:17:38;100274.91;;;-0.50;100.00
51452;BME280;37521;52.020;-1.740;2024-02-28T02:20:10;100270.53;;;-0.71;100.00
51452;BME280;37521;52.020;-1.740;2024-02-28T02:22:41;100257.56;;;-0.63;100.00
51452;BME280;37521;52.020;-1.740;2024-02-28T02:25:10;100255.91;;;-0.53;100.00
51452;BME280;37521;52.020;-1.740;2024-02-28T02:27:39;100262.81;;;-0.48;100.00
51452;BME280;37521;52.020;-1.740;2024-02-28T02:30:08;100270.63;;;-0.37;100.00
51452;BME280;37521;52.020;-1.740;2024-02-28T02:32:37;100271.50;;;-0.31;100.00
51452;BME280;37521;52.020;-1.740;2024-02-28T02:35:06;100284.47;;;-0.32;100.00
51452;BME280;37521;52.020;-1.740;2024-02-28T02:37:35;100294.84;;;-0.38;100.00
51452;BME280;37521;52.020;-1.740;2024-02-28T02:40:06;100286.16;;;-0.43;100.00
51452;BME280;37521;52.020;-1.740;2024-02-28T02:42:36;100288.78;;;-0.37;100.00
51452;BME280;37521;52.020;-1.740;2024-02-28T02:45:06;100278.41;;;-0.33;100.00
51452;BME280;37521;52.020;-1.740;2024-02-28T02:47:35;100275.84;;;-0.25;100.00
51452;BME280;37521;52.020;-1.740;2024-02-28T02:50:04;100279.28;;;-0.23;100.00
51452;BME280;37521;52.020;-1.740;2024-02-28T02:52:34;100275.81;;;-0.31;100.00
51452;BME280;37521;52.020;-1.740;2024-02-28T02:55:03;100260.22;;;-0.34;100.00
51452;BME280;37521;52.020;-1.740;2024-02-28T02:57:33;100262.84;;;-0.23;100.00
51452;BME280;37521;52.020;-1.740;2024-02-28T03:00:02;100253.34;;;-0.17;100.00
51452;BME280;37521;52.020;-1.740;2024-02-28T03:02:31;100249.03;;;-0.10;100.00
51452;BME280;37521;52.020;-1.740;2024-02-28T03:05:00;100248.19;;;0.02;100.00
51452;BME280;37521;52.020;-1.740;2024-02-28T03:07:28;100255.97;;;0.11;100.00
51452;BME280;37521;52.020;-1.740;2024-02-28T03:09:57;100258.56;;;0.17;100.00
51452;BME280;37521;52.020;-1.740;2024-02-28T03:12:26;100252.50;;;0.10;100.00
51452;BME280;37521;52.020;-1.740;2024-02-28T03:14:56;100253.38;;;0.09;100.00
51452;BME280;37521;52.020;-1.740;2024-02-28T03:17:25;100258.56;;;0.08;100.00
51452;BME280;37521;52.020;-1.740;2024-02-28T03:19:53;100243.84;;;0.10;100.00
51452;BME280;37521;52.020;-1.740;2024-02-28T03:22:23;100225.66;;;0.11;100.00
51452;BME280;37521;52.020;-1.740;2024-02-28T03:24:52;100236.03;;;0.13;100.00
51452;BME280;37521;52.020;-1.740;2024-02-28T03:27:20;100228.25;;;0.11;100.00
51452;BME280;37521;52.020;-1.740;2024-02-28T03:29:49;100223.94;;;0.09;100.00
51452;BME280;37521;52.020;-1.740;2024-02-28T03:32:19;100219.63;;;0.08;100.00
51452;BME280;37521;52.020;-1.740;2024-02-28T03:34:48;100224.81;;;0.11;100.00
51452;BME280;37521;52.020;-1.740;2024-02-28T03:37:17;100226.53;;;0.15;100.00
51452;BME280;37521;52.020;-1.740;2024-02-28T03:39:45;100225.69;;;0.20;100.00
51452;BME280;37521;52.020;-1.740;2024-02-28T03:42:14;100237.78;;;0.20;100.00
51452;BME280;37521;52.020;-1.740;2024-02-28T03:44:43;100224.81;;;0.21;100.00
51452;BME280;37521;52.020;-1.740;2024-02-28T03:47:12;100229.16;;;0.09;100.00
51452;BME280;37521;52.020;-1.740;2024-02-28T03:49:42;100232.59;;;0.02;100.00
51452;BME280;37521;52.020;-1.740;2024-02-28T03:52:11;100229.13;;;-0.04;100.00
51452;BME280;37521;52.020;-1.740;2024-02-28T03:54:42;100225.69;;;-0.12;100.00
51452;BME280;37521;52.020;-1.740;2024-02-28T03:57:11;100222.19;;;-0.14;100.00
51452;BME280;37521;52.020;-1.740;2024-02-28T03:59:40;100216.16;;;-0.17;100.00
51452;BME280;37521;52.020;-1.740;2024-02-28T04:02:09;100206.66;;;-0.20;100.00
51452;BME280;37521;52.020;-1.740;2024-02-28T04:04:38;100210.09;;;-0.21;100.00
51452;BME280;37521;52.020;-1.740;2024-02-28T04:07:08;100211.84;;;-0.18;100.00
51452;BME280;37521;52.020;-1.740;2024-02-28T04:09:37;100212.69;;;-0.21;100.00
51452;BME280;37521;52.020;-1.740;2024-02-28T04:12:07;100215.28;;;-0.24;100.00
51452;BME280;37521;52.020;-1.740;2024-02-28T04:14:37;100210.09;;;-0.25;100.00
51452;BME280;37521;52.020;-1.740;2024-02-28T04:17:06;100211.81;;;-0.23;100.00
51452;BME280;37521;52.020;-1.740;2024-02-28T04:19:35;100210.97;;;-0.13;100.00
51452;BME280;37521;52.020;-1.740;2024-02-28T04:22:04;100213.56;;;-0.08;100.00
51452;BME280;37521;52.020;-1.740;2024-02-28T04:24:34;100210.09;;;-0.03;100.00
51452;BME280;37521;52.020;-1.740;2024-02-28T04:27:04;100197.13;;;-0.04;100.00
51452;BME280;37521;52.020;-1.740;2024-02-28T04:29:33;100187.59;;;-0.08;100.00
51452;BME280;37521;52.020;-1.740;2024-02-28T04:32:02;100203.19;;;-0.10;100.00
51452;BME280;37521;52.020;-1.740;2024-02-28T04:34:30;100190.22;;;-0.07;100.00
51452;BME280;37521;52.020;-1.740;2024-02-28T04:36:59;100180.69;;;-0.05;100.00
51452;BME280;37521;52.020;-1.740;2024-02-28T04:39:28;100179.84;;;0.01;100.00
51452;BME280;37521;52.020;-1.740;2024-02-28T04:41:58;100185.88;;;0.05;100.00
51452;BME280;37521;52.020;-1.740;2024-02-28T04:44:26;100170.28;;;0.05;100.00
51452;BME280;37521;52.020;-1.740;2024-02-28T04:46:55;100178.97;;;0.02;100.00
51452;BME280;37521;52.020;-1.740;2024-02-28T04:49:24;100178.94;;;0.07;100.00
51452;BME280;37521;52.020;-1.740;2024-02-28T04:51:53;100172.03;;;0.09;100.00
51452;BME280;37521;52.020;-1.740;2024-02-28T04:54:22;100165.13;;;0.08;100.00
51452;BME280;37521;52.020;-1.740;2024-02-28T04:56:50;100171.16;;;0.04;100.00
51452;BME280;37521;52.020;-1.740;2024-02-28T04:59:21;100159.94;;;0.02;100.00
51452;BME280;37521;52.020;-1.740;2024-02-28T05:01:49;100166.81;;;-0.01;100.00
51452;BME280;37521;52.020;-1.740;2024-02-28T05:04:19;100182.41;;;0.06;100.00
51452;BME280;37521;52.020;-1.740;2024-02-28T05:06:48;100172.91;;;0.00;100.00
51452;BME280;37521;52.020;-1.740;2024-02-28T05:09:17;100168.56;;;-0.03;100.00
51452;BME280;37521;52.020;-1.740;2024-02-28T05:11:45;100163.41;;;-0.06;100.00
51452;BME280;37521;52.020;-1.740;2024-02-28T05:14:14;100169.44;;;-0.04;100.00
51452;BME280;37521;52.020;-1.740;2024-02-28T05:16:44;100160.78;;;-0.01;100.00
51452;BME280;37521;52.020;-1.740;2024-02-28T05:19:13;100177.22;;;0.04;100.00
51452;BME280;37521;52.020;-1.740;2024-02-28T05:21:45;100159.06;;;0.03;100.00
51452;BME280;37521;52.020;-1.740;2024-02-28T05:24:15;100170.28;;;0.05;100.00
51452;BME280;37521;52.020;-1.740;2024-02-28T05:26:44;100180.69;;;0.08;100.00
51452;BME280;37521;52.020;-1.740;2024-02-28T05:29:13;100175.47;;;0.11;100.00
51452;BME280;37521;52.020;-1.740;2024-02-28T05:31:41;100164.22;;;0.18;100.00
51452;BME280;37521;52.020;-1.740;2024-02-28T05:34:11;100159.03;;;0.22;100.00
51452;BME280;37521;52.020;-1.740;2024-02-28T05:36:40;100167.66;;;0.29;100.00
51452;BME280;37521;52.020;-1.740;2024-02-28T05:39:09;100171.13;;;0.36;100.00
51452;BME280;37521;52.020;-1.740;2024-02-28T05:41:38;100170.22;;;0.38;100.00
51452;BME280;37521;52.020;-1.740;2024-02-28T05:44:07;100164.16;;;0.42;100.00
51452;BME280;37521;52.020;-1.740;2024-02-28T05:46:35;100154.63;;;0.47;100.00
51452;BME280;37521;52.020;-1.740;2024-02-28T05:49:04;100152.88;;;0.56;100.00
51452;BME280;37521;52.020;-1.740;2024-02-28T05:51:35;100136.38;;;0.67;100.00
51452;BME280;37521;52.020;-1.740;2024-02-28T05:54:04;100128.50;;;0.78;100.00
51452;BME280;37521;52.020;-1.740;2024-02-28T05:56:32;100131.94;;;0.89;100.00
51452;BME280;37521;52.020;-1.740;2024-02-28T05:59:01;100116.28;;;0.98;100.00
51452;BME280;37521;52.020;-1.740;2024-02-28T06:01:30;100114.50;;;1.05;100.00
51452;BME280;37521;52.020;-1.740;2024-02-28T06:03:59;100113.63;;;1.11;100.00
51452;BME280;37521;52.020;-1.740;2024-02-28T06:06:29;100109.25;;;1.13;100.00
51452;BME280;37521;52.020;-1.740;2024-02-28T06:08:59;100120.53;;;1.15;100.00
51452;BME280;37521;52.020;-1.740;2024-02-28T06:11:28;100119.66;;;1.16;100.00
51452;BME280;37521;52.020;-1.740;2024-02-28T06:13:56;100126.56;;;1.17;100.00
51452;BME280;37521;52.020;-1.740;2024-02-28T06:16:25;100116.19;;;1.17;100.00
51452;BME280;37521;52.020;-1.740;2024-02-28T06:18:54;100117.91;;;1.16;100.00
51452;BME280;37521;52.020;-1.740;2024-02-28T06:21:22;100116.19;;;1.17;100.00
51452;BME280;37521;52.020;-1.740;2024-02-28T06:23:52;100124.81;;;1.19;100.00
51452;BME280;37521;52.020;-1.740;2024-02-28T06:26:22;100116.13;;;1.23;100.00
51452;BME280;37521;52.020;-1.740;2024-02-28T06:28:51;100107.41;;;1.27;100.00
51452;BME280;37521;52.020;-1.740;2024-02-28T06:31:20;100112.63;;;1.30;100.00
51452;BME280;37521;52.020;-1.740;2024-02-28T06:33:49;100116.91;;;1.32;100.00
51452;BME280;37521;52.020;-1.740;2024-02-28T06:36:17;100123.84;;;1.33;100.00
51452;BME280;37521;52.020;-1.740;2024-02-28T06:38:46;100102.16;;;1.36;100.00
51452;BME280;37521;52.020;-1.740;2024-02-28T06:41:15;100093.44;;;1.40;100.00
51452;BME280;37521;52.020;-1.740;2024-02-28T06:43:45;100066.53;;;1.47;100.00
51452;BME280;37521;52.020;-1.740;2024-02-28T06:46:14;100080.38;;;1.51;100.00
51452;BME280;37521;52.020;-1.740;2024-02-28T06:48:43;100082.09;;;1.55;100.00
51452;BME280;37521;52.020;-1.740;2024-02-28T06:51:11;100079.44;;;1.61;100.00
51452;BME280;37521;52.020;-1.740;2024-02-28T06:53:44;100079.34;;;1.69;100.00
51452;BME280;37521;52.020;-1.740;2024-02-28T06:56:12;100080.13;;;1.77;100.00
51452;BME280;37521;52.020;-1.740;2024-02-28T06:58:41;100082.59;;;1.92;100.00
51452;BME280;37521;52.020;-1.740;2024-02-28T07:01:11;100072.97;;;1.99;100.00
51452;BME280;37521;52.020;-1.740;2024-02-28T07:03:40;100075.47;;;2.06;100.00
51452;BME280;37521;52.020;-1.740;2024-02-28T07:06:11;100077.16;;;2.15;100.00
51452;BME280;37521;52.020;-1.740;2024-02-28T07:08:39;100084.00;;;2.24;100.00
51452;BME280;37521;52.020;-1.740;2024-02-28T07:11:13;100090.03;;;2.26;100.00
51452;BME280;37521;52.020;-1.740;2024-02-28T07:13:42;100096.13;;;2.25;100.00
51452;BME280;37521;52.020;-1.740;2024-02-28T07:16:12;100097.91;;;2.23;100.00
51452;BME280;37521;52.020;-1.740;2024-02-28T07:18:41;100103.97;;;2.23;100.00
51452;BME280;37521;52.020;-1.740;2024-02-28T07:21:10;100115.22;;;2.27;100.00
51452;BME280;37521;52.020;-1.740;2024-02-28T07:23:39;100103.91;;;2.29;100.00
51452;BME280;37521;52.020;-1.740;2024-02-28T07:26:13;100104.75;;;2.30;100.00
51452;BME280;37521;52.020;-1.740;2024-02-28T07:28:53;100108.22;;;2.32;100.00
51452;BME280;37521;52.020;-1.740;2024-02-28T07:31:23;100097.78;;;2.32;100.00
51452;BME280;37521;52.020;-1.740;2024-02-28T07:33:52;100087.41;;;2.29;100.00
51452;BME280;37521;52.020;-1.740;2024-02-28T07:36:20;100090.91;;;2.28;100.00
51452;BME280;37521;52.020;-1.740;2024-02-28T07:38:50;100082.19;;;2.27;100.00
51452;BME280;37521;52.020;-1.740;2024-02-28T07:41:19;100085.66;;;2.31;100.00
51452;BME280;37521;52.020;-1.740;2024-02-28T07:43:49;100101.22;;;2.34;100.00
51452;BME280;37521;52.020;-1.740;2024-02-28T07:46:18;100109.84;;;2.42;100.00
51452;BME280;37521;52.020;-1.740;2024-02-28T07:48:48;100105.44;;;2.49;100.00
51452;BME280;37521;52.020;-1.740;2024-02-28T07:51:17;100111.44;;;2.52;100.00
51452;BME280;37521;52.020;-1.740;2024-02-28T07:53:46;100131.41;;;2.55;100.00
51452;BME280;37521;52.020;-1.740;2024-02-28T07:56:19;100133.13;;;2.56;100.00
51452;BME280;37521;52.020;-1.740;2024-02-28T07:58:48;100129.66;;;2.57;100.00
51452;BME280;37521;52.020;-1.740;2024-02-28T08:01:16;100138.31;;;2.59;100.00
51452;BME280;37521;52.020;-1.740;2024-02-28T08:03:45;100128.72;;;2.62;100.00
51452;BME280;37521;52.020;-1.740;2024-02-28T08:06:16;100135.63;;;2.65;100.00
51452;BME280;37521;52.020;-1.740;2024-02-28T08:08:45;100126.94;;;2.64;100.00
51452;BME280;37521;52.020;-1.740;2024-02-28T08:11:14;100128.66;;;2.65;100.00
51452;BME280;37521;52.020;-1.740;2024-02-28T08:13:43;100122.56;;;2.66;100.00
51452;BME280;37521;52.020;-1.740;2024-02-28T08:16:12;100128.59;;;2.71;100.00
51452;BME280;37521;52.020;-1.740;2024-02-28T08:18:41;100132.81;;;2.80;100.00
51452;BME280;37521;52.020;-1.740;2024-02-28T08:21:09;100129.94;;;3.03;100.00
51452;BME280;37521;52.020;-1.740;2024-02-28T08:23:40;100124.34;;;3.27;100.00
51452;BME280;37521;52.020;-1.740;2024-02-28T08:26:09;100119.69;;;3.46;100.00
51452;BME280;37521;52.020;-1.740;2024-02-28T08:28:37;100121.22;;;3.61;100.00
51452;BME280;37521;52.020;-1.740;2024-02-28T08:31:06;100119.28;;;3.72;100.00
51452;BME280;37521;52.020;-1.740;2024-02-28T08:33:35;100123.56;;;3.78;100.00
51452;BME280;37521;52.020;-1.740;2024-02-28T08:36:04;100113.91;;;3.83;100.00
51452;BME280;37521;52.020;-1.740;2024-02-28T08:38:33;100111.19;;;3.88;100.00
51452;BME280;37521;52.020;-1.740;2024-02-28T08:41:07;100112.84;;;3.95;100.00
51452;BME280;37521;52.020;-1.740;2024-02-28T08:43:38;100116.19;;;4.00;100.00
51452;BME280;37521;52.020;-1.740;2024-02-28T08:46:07;100112.66;;;4.04;100.00
51452;BME280;37521;52.020;-1.740;2024-02-28T08:48:36;100113.44;;;4.09;100.00
51452;BME280;37521;52.020;-1.740;2024-02-28T08:51:05;100103.78;;;4.13;100.00
51452;BME280;37521;52.020;-1.740;2024-02-28T08:53:34;100106.28;;;4.19;100.00
51452;BME280;37521;52.020;-1.740;2024-02-28T08:56:04;100102.72;;;4.23;100.00
51452;BME280;37521;52.020;-1.740;2024-02-28T08:58:34;100110.47;;;4.27;100.00
51452;BME280;37521;52.020;-1.740;2024-02-28T09:01:04;100109.56;;;4.30;100.00
51452;BME280;37521;52.020;-1.740;2024-02-28T09:03:33;100104.25;;;4.33;100.00
51452;BME280;37521;52.020;-1.740;2024-02-28T09:06:03;100110.31;;;4.36;100.00
51452;BME280;37521;52.020;-1.740;2024-02-28T09:08:32;100107.63;;;4.40;100.00
51452;BME280;37521;52.020;-1.740;2024-02-28T09:11:01;100111.94;;;4.42;100.00
51452;BME280;37521;52.020;-1.740;2024-02-28T09:13:31;100117.06;;;4.47;100.00
51452;BME280;37521;52.020;-1.740;2024-02-28T09:16:02;100102.19;;;4.50;100.00
51452;BME280;37521;52.020;-1.740;2024-02-28T09:18:31;100106.47;;;4.53;100.00
51452;BME280;37521;52.020;-1.740;2024-02-28T09:21:00;100106.44;;;4.56;100.00
51452;BME280;37521;52.020;-1.740;2024-02-28T09:23:29;100102.00;;;4.59;100.00
51452;BME280;37521;52.020;-1.740;2024-02-28T09:25:58;100089.72;;;4.63;100.00
51452;BME280;37521;52.020;-1.740;2024-02-28T09:28:27;100089.69;;;4.64;100.00
51452;BME280;37521;52.020;-1.740;2024-02-28T09:30:55;100083.53;;;4.67;100.00
51452;BME280;37521;52.020;-1.740;2024-02-28T09:33:26;100074.81;;;4.68;100.00
51452;BME280;37521;52.020;-1.740;2024-02-28T09:35:54;100078.25;;;4.70;100.00
51452;BME280;37521;52.020;-1.740;2024-02-28T09:38:23;100083.38;;;4.73;100.00
51452;BME280;37521;52.020;-1.740;2024-02-28T09:40:52;100079.03;;;4.74;100.00
51452;BME280;37521;52.020;-1.740;2024-02-28T09:43:27;100078.13;;;4.76;100.00
51452;BME280;37521;52.020;-1.740;2024-02-28T09:45:59;100068.56;;;4.75;100.00
51452;BME280;37521;52.020;-1.740;2024-02-28T09:48:31;100070.31;;;4.73;100.00
51452;BME280;37521;52.020;-1.740;2024-02-28T09:51:00;100063.28;;;4.77;100.00
51452;BME280;37521;52.020;-1.740;2024-02-28T09:53:29;100065.84;;;4.78;100.00
51452;BME280;37521;52.020;-1.740;2024-02-28T09:55:58;100066.66;;;4.80;100.00
51452;BME280;37521;52.020;-1.740;2024-02-28T09:58:28;100064.88;;;4.84;100.00
51452;BME280;37521;52.020;-1.740;2024-02-28T10:01:01;100063.91;;;4.86;100.00
51452;BME280;37521;52.020;-1.740;2024-02-28T10:03:33;100063.88;;;4.89;100.00
51452;BME280;37521;52.020;-1.740;2024-02-28T10:06:02;100064.72;;;4.90;100.00
51452;BME280;37521;52.020;-1.740;2024-02-28T10:08:32;100055.03;;;4.95;100.00
51452;BME280;37521;52.020;-1.740;2024-02-28T10:11:02;100052.25;;;5.01;100.00
51452;BME280;37521;52.020;-1.740;2024-02-28T10:13:31;100046.09;;;5.04;100.00
51452;BME280;37521;52.020;-1.740;2024-02-28T10:15:59;100042.50;;;5.08;100.00
51452;BME280;37521;52.020;-1.740;2024-02-28T10:18:32;100042.41;;;5.12;100.00
51452;BME280;37521;52.020;-1.740;2024-02-28T10:21:01;100035.34;;;5.16;100.00
51452;BME280;37521;52.020;-1.740;2024-02-28T10:23:30;100034.34;;;5.20;100.00
51452;BME280;37521;52.020;-1.740;2024-02-28T10:26:01;100032.53;;;5.24;100.00
51452;BME280;37521;52.020;-1.740;2024-02-28T10:28:30;100036.69;;;5.32;100.00
51452;BME280;37521;52.020;-1.740;2024-02-28T10:30:59;100017.41;;;5.36;100.00
51452;BME280;37521;52.020;-1.740;2024-02-28T10:33:28;100018.97;;;5.43;100.00
51452;BME280;37521;52.020;-1.740;2024-02-28T10:35:59;100020.56;;;5.49;100.00
51452;BME280;37521;52.020;-1.740;2024-02-28T10:38:28;100013.41;;;5.56;100.00
51452;BME280;37521;52.020;-1.740;2024-02-28T10:41:00;100001.91;;;5.61;100.00
51452;BME280;37521;52.020;-1.740;2024-02-28T10:43:30;100001.78;;;5.66;100.00
51452;BME280;37521;52.020;-1.740;2024-02-28T10:46:02;99990.34;;;5.70;100.00
51452;BME280;37521;52.020;-1.740;2024-02-28T10:48:50;99987.56;;;5.76;100.00
51452;BME280;37521;52.020;-1.740;2024-02-28T10:51:25;99983.88;;;5.82;100.00
51452;BME280;37521;52.020;-1.740;2024-02-28T10:54:06;99989.81;;;5.88;100.00
51452;BME280;37521;52.020;-1.740;2024-02-28T10:56:37;99983.59;;;5.94;100.00
51452;BME280;37521;52.020;-1.740;2024-02-28T10:59:07;99986.25;;;5.92;100.00
51452;BME280;37521;52.020;-1.740;2024-02-28T11:01:40;99980.22;;;5.89;100.00
51452;BME280;37521;52.020;-1.740;2024-02-28T11:04:12;99975.91;;;5.86;100.00
51452;BME280;37521;52.020;-1.740;2024-02-28T11:06:49;99967.25;;;5.84;100.00
51452;BME280;37521;52.020;-1.740;2024-02-28T11:09:20;99967.13;;;5.87;100.00
51452;BME280;37521;52.020;-1.740;2024-02-28T11:11:52;99968.84;;;5.88;100.00
51452;BME280;37521;52.020;-1.740;2024-02-28T11:14:21;99975.84;;;5.89;100.00
51452;BME280;37521;52.020;-1.740;2024-02-28T11:16:59;99970.59;;;5.89;100.00
51452;BME280;37521;52.020;-1.740;2024-02-28T11:19:29;99964.56;;;5.86;100.00
51452;BME280;37521;52.020;-1.740;2024-02-28T11:22:00;99961.03;;;5.87;100.00
51452;BME280;37521;52.020;-1.740;2024-02-28T11:24:33;99961.84;;;5.90;100.00
51452;BME280;37521;52.020;-1.740;2024-02-28T11:27:05;99945.19;;;5.93;100.00
51452;BME280;37521;52.020;-1.740;2024-02-28T11:29:34;99931.97;;;5.97;100.00
51452;BME280;37521;52.020;-1.740;2024-02-28T11:32:04;99924.84;;;6.03;100.00
51452;BME280;37521;52.020;-1.740;2024-02-28T11:34:33;99912.53;;;6.05;100.00
51452;BME280;37521;52.020;-1.740;2024-02-28T11:37:04;99908.94;;;6.09;100.00
51452;BME280;37521;52.020;-1.740;2024-02-28T11:39:33;99906.16;;;6.13;100.00
51452;BME280;37521;52.020;-1.740;2024-02-28T11:42:09;99908.94;;;6.09;100.00
51452;BME280;37521;52.020;-1.740;2024-02-28T11:44:38;99919.31;;;6.12;100.00
51452;BME280;37521;52.020;-1.740;2024-02-28T11:47:08;99910.63;;;6.10;100.00
51452;BME280;37521;52.020;-1.740;2024-02-28T11:49:37;99909.00;;;6.06;100.00
51452;BME280;37521;52.020;-1.740;2024-02-28T11:52:08;99924.84;;;6.03;100.00
51452;BME280;37521;52.020;-1.740;2024-02-28T11:54:38;99921.34;;;6.02;100.00
51452;BME280;37521;52.020;-1.740;2024-02-28T11:57:07;99923.81;;;6.07;100.00
51452;BME280;37521;52.020;-1.740;2024-02-28T11:59:41;99929.78;;;6.12;100.00
51452;BME280;37521;52.020;-1.740;2024-02-28T12:02:13;99921.03;;;6.13;100.00
51452;BME280;37521;52.020;-1.740;2024-02-28T12:04:42;99913.97;;;6.15;100.00
51452;BME280;37521;52.020;-1.740;2024-02-28T12:07:12;99912.91;;;6.20;100.00
51452;BME280;37521;52.020;-1.740;2024-02-28T12:09:42;99889.31;;;6.22;100.00
51452;BME280;37521;52.020;-1.740;2024-02-28T12:12:12;99889.19;;;6.25;100.00
51452;BME280;37521;52.020;-1.740;2024-02-28T12:14:41;99885.59;;;6.29;100.00
51452;BME280;37521;52.020;-1.740;2024-02-28T12:17:10;99882.06;;;6.30;100.00
51452;BME280;37521;52.020;-1.740;2024-02-28T12:19:39;99866.22;;;6.33;100.00
51452;BME280;37521;52.020;-1.740;2024-02-28T12:22:08;99871.31;;;6.38;100.00
51452;BME280;37521;52.020;-1.740;2024-02-28T12:24:38;99866.03;;;6.39;100.00
51452;BME280;37521;52.020;-1.740;2024-02-28T12:27:07;99866.94;;;6.38;100.00
51452;BME280;37521;52.020;-1.740;2024-02-28T12:29:36;99864.19;;;6.41;100.00
51452;BME280;37521;52.020;-1.740;2024-02-28T12:32:05;99865.72;;;6.48;100.00
51452;BME280;37521;52.020;-1.740;2024-02-28T12:34:33;99858.69;;;6.50;100.00
51452;BME280;37521;52.020;-1.740;2024-02-28T12:37:02;99854.16;;;6.55;100.00
51452;BME280;37521;52.020;-1.740;2024-02-28T12:39:32;99856.47;;;6.65;100.00
51452;BME280;37521;52.020;-1.740;2024-02-28T12:42:04;99854.97;;;6.58;100.00
51452;BME280;37521;52.020;-1.740;2024-02-28T12:44:33;99838.50;;;6.52;100.00
51452;BME280;37521;52.020;-1.740;2024-02-28T12:47:01;99843.88;;;6.48;100.00
51452;BME280;37521;52.020;-1.740;2024-02-28T12:49:30;99837.50;;;6.57;100.00
51452;BME280;37521;52.020;-1.740;2024-02-28T12:51:59;99827.59;;;6.65;100.00